Time;durP1;ratioP1;P1;durP2;ratioP2;P2;SDS_P1;SDS_P2;PMS_P1;PMS_P2;Temp;Humidity;BMP_temperature;BMP_pressure;BME280_temperature;BME280_humidity;BME280_pressure;Samples;Min_cycle;Max_cycle;Signal;HPM_P1;HPM_P2
2023/10/29 00:00:31;;;;;;;14.27;10.40;;;9.90;88.70;;;;;;5110059;28;20204;-65
2023/10/29 00:02:57;;;;;;;15.03;10.43;;;10.00;88.70;;;;;;5103678;28;20031;-65
2023/10/29 00:05:24;;;;;;;18.20;10.80;;;10.00;88.60;;;;;;5109492;28;20078;-65
2023/10/29 00:07:49;;;;;;;16.77;10.47;;;10.00;88.70;;;;;;5109972;28;20106;-65
2023/10/29 00:10:18;;;;;;;19.30;9.43;;;10.00;88.70;;;;;;5110290;28;20083;-65
2023/10/29 00:12:44;;;;;;;19.50;10.83;;;10.00;88.80;;;;;;5107869;28;20461;-66
2023/10/29 00:15:10;;;;;;;15.00;10.00;;;10.00;88.90;;;;;;5110342;28;20043;-65
2023/10/29 00:17:36;;;;;;;16.67;9.80;;;10.00;88.90;;;;;;5109560;28;20116;-65
2023/10/29 00:20:06;;;;;;;14.57;9.33;;;10.00;89.00;;;;;;5109279;28;20071;-65
2023/10/29 00:22:32;;;;;;;15.67;9.70;;;10.00;88.90;;;;;;5110165;28;20044;-66
2023/10/29 00:24:58;;;;;;;14.83;9.10;;;10.00;89.00;;;;;;5110088;28;20059;-65
2023/10/29 00:27:24;;;;;;;14.53;8.90;;;10.00;89.00;;;;;;5109789;28;20039;-65
2023/10/29 00:29:49;;;;;;;18.90;9.83;;;10.00;89.10;;;;;;5109664;28;20044;-65
2023/10/29 00:32:18;;;;;;;18.17;9.93;;;10.00;89.20;;;;;;5109549;28;20044;-65
2023/10/29 00:34:48;;;;;;;15.70;10.00;;;10.10;89.30;;;;;;5109823;28;20051;-65
2023/10/29 00:37:16;;;;;;;18.57;10.23;;;10.10;89.30;;;;;;5109557;28;20054;-65
2023/10/29 00:39:42;;;;;;;21.47;10.87;;;10.10;89.30;;;;;;5091121;28;20047;-65
2023/10/29 00:42:09;;;;;;;19.80;10.77;;;10.10;89.50;;;;;;5108768;28;20054;-65
2023/10/29 00:44:35;;;;;;;17.43;11.33;;;10.10;89.50;;;;;;5108831;28;20080;-65
2023/10/29 00:47:01;;;;;;;21.60;12.50;;;10.10;89.50;;;;;;5109270;28;20080;-64
2023/10/29 00:49:26;;;;;;;15.10;11.17;;;10.10;89.60;;;;;;5109605;28;20054;-65
2023/10/29 00:51:52;;;;;;;18.00;13.00;;;10.10;89.60;;;;;;5109293;28;20077;-65
2023/10/29 00:54:18;;;;;;;16.13;12.00;;;10.10;89.60;;;;;;5108992;28;20082;-64
2023/10/29 00:56:44;;;;;;;16.97;11.57;;;10.10;89.70;;;;;;5109294;28;20054;-64
2023/10/29 00:59:11;;;;;;;16.37;13.10;;;10.20;89.80;;;;;;5109104;28;20048;-65
2023/10/29 01:01:38;;;;;;;18.83;12.73;;;10.20;89.80;;;;;;5108519;28;20122;-65
2023/10/29 01:04:04;;;;;;;19.80;13.50;;;10.20;89.90;;;;;;5114743;27;20083;-64
2023/10/29 01:06:35;;;;;;;20.47;13.47;;;10.20;90.00;;;;;;5109413;28;20032;-65
2023/10/29 01:09:01;;;;;;;14.75;12.13;;;10.20;89.90;;;;;;5108165;28;20122;-65
2023/10/29 01:11:26;;;;;;;14.57;12.03;;;10.20;90.00;;;;;;5107800;28;20123;-64
2023/10/29 01:13:52;;;;;;;16.03;10.63;;;10.20;90.00;;;;;;5108660;28;20523;-65
2023/10/29 01:16:18;;;;;;;15.63;10.43;;;10.30;90.10;;;;;;5108173;28;20055;-65
2023/10/29 01:18:43;;;;;;;13.47;9.90;;;10.30;90.10;;;;;;5120995;28;20083;-65
2023/10/29 01:21:09;;;;;;;13.57;10.43;;;10.30;90.20;;;;;;5109526;28;20544;-65
2023/10/29 01:23:36;;;;;;;12.77;9.80;;;10.30;90.20;;;;;;5108723;28;20073;-65
2023/10/29 01:26:02;;;;;;;14.13;11.07;;;10.30;90.20;;;;;;5110976;28;20048;-65
2023/10/29 01:28:27;;;;;;;13.23;10.97;;;10.40;90.30;;;;;;5109061;28;20066;-65
2023/10/29 01:30:53;;;;;;;15.87;11.23;;;10.40;90.30;;;;;;5108951;28;20051;-65
2023/10/29 01:33:19;;;;;;;12.83;11.20;;;10.40;90.30;;;;;;5109262;28;20050;-65
2023/10/29 01:35:45;;;;;;;15.43;12.53;;;10.40;90.40;;;;;;5108949;28;20050;-65
2023/10/29 01:38:11;;;;;;;14.30;11.60;;;10.40;90.40;;;;;;5109635;28;20044;-66
2023/10/29 01:40:37;;;;;;;13.17;10.77;;;10.50;90.40;;;;;;5109064;28;20426;-65
2023/10/29 01:43:02;;;;;;;15.53;11.50;;;10.50;90.40;;;;;;5106163;28;20068;-65
2023/10/29 01:45:28;;;;;;;13.50;11.37;;;10.50;90.40;;;;;;5097121;28;20507;-65
2023/10/29 01:47:54;;;;;;;16.53;12.93;;;10.50;90.50;;;;;;5105599;28;20047;-65
2023/10/29 01:50:19;;;;;;;13.00;10.23;;;10.60;90.50;;;;;;5105546;28;20036;-65
2023/10/29 01:52:45;;;;;;;16.33;12.00;;;10.60;90.50;;;;;;5106444;28;20056;-65
2023/10/29 01:55:11;;;;;;;12.47;10.70;;;10.70;90.50;;;;;;5106316;28;20122;-65
2023/10/29 01:57:36;;;;;;;12.30;11.13;;;10.70;90.60;;;;;;5105498;28;20437;-65
2023/10/29 02:00:07;;;;;;;15.47;13.87;;;10.80;90.60;;;;;;5105998;28;20047;-65
2023/10/29 02:02:33;;;;;;;13.73;11.05;;;10.80;90.60;;;;;;5106001;28;20593;-65
2023/10/29 02:04:59;;;;;;;15.07;10.77;;;10.80;90.60;;;;;;5106904;28;20469;-65
2023/10/29 02:07:25;;;;;;;13.23;11.83;;;10.90;90.50;;;;;;5109916;28;20048;-65
2023/10/29 02:09:51;;;;;;;16.67;12.10;;;10.90;90.60;;;;;;5109857;28;20087;-65
2023/10/29 02:12:16;;;;;;;17.10;13.27;;;11.00;90.50;;;;;;5107904;27;20051;-65
2023/10/29 02:14:42;;;;;;;13.73;11.53;;;11.00;90.50;;;;;;5092114;28;20401;-65
2023/10/29 02:17:07;;;;;;;15.10;13.40;;;11.10;90.60;;;;;;5107972;28;20524;-65
2023/10/29 02:19:33;;;;;;;16.23;13.40;;;11.10;90.50;;;;;;5105747;28;20100;-65
2023/10/29 02:21:59;;;;;;;13.77;10.53;;;11.10;90.50;;;;;;5109107;28;20047;-65
2023/10/29 02:24:24;;;;;;;9.40;8.40;;;11.10;90.40;;;;;;5111219;28;20051;-65
2023/10/29 02:26:50;;;;;;;10.63;7.93;;;11.30;90.40;;;;;;5106791;28;20087;-65
2023/10/29 02:29:16;;;;;;;8.90;6.50;;;11.30;90.30;;;;;;5110879;28;20047;-65
2023/10/29 02:31:42;;;;;;;15.93;10.88;;;11.30;90.20;;;;;;5112776;28;20046;-65
2023/10/29 02:34:08;;;;;;;13.15;7.53;;;11.40;90.00;;;;;;5112103;28;20048;-65
2023/10/29 02:36:33;;;;;;;9.20;7.10;;;11.40;89.90;;;;;;5112596;28;20053;-66
2023/10/29 02:38:59;;;;;;;9.10;6.10;;;11.50;89.70;;;;;;5093837;28;20067;-65
2023/10/29 02:41:25;;;;;;;8.93;5.78;;;11.50;89.60;;;;;;5111759;28;20054;-66
2023/10/29 02:43:50;;;;;;;10.60;5.55;;;11.50;89.50;;;;;;5112150;28;20130;-65
2023/10/29 02:46:16;;;;;;;7.43;5.43;;;11.50;89.20;;;;;;5111808;28;20046;-65
2023/10/29 02:48:42;;;;;;;7.60;4.63;;;11.60;89.10;;;;;;5095171;27;20063;-65
2023/10/29 02:51:11;;;;;;;7.95;4.60;;;11.60;89.00;;;;;;5121745;27;20043;-65
2023/10/29 02:53:37;;;;;;;8.70;4.78;;;11.70;88.90;;;;;;5111733;28;20040;-65
2023/10/29 02:56:03;;;;;;;6.28;4.50;;;11.60;88.80;;;;;;5111500;28;21632;-65
2023/10/29 02:58:29;;;;;;;10.00;5.35;;;11.60;88.70;;;;;;5111370;28;20043;-65
2023/10/29 03:01:04;;;;;;;6.47;4.15;;;11.60;88.60;;;;;;5111157;28;20385;-65
2023/10/29 03:03:29;;;;;;;7.97;4.05;;;11.60;88.40;;;;;;5111029;28;20054;-66
2023/10/29 03:05:55;;;;;;;6.45;4.20;;;11.60;88.40;;;;;;5110890;28;20106;-66
2023/10/29 03:08:21;;;;;;;7.30;4.05;;;11.60;88.20;;;;;;5092835;28;20060;-65
2023/10/29 03:10:49;;;;;;;7.13;3.90;;;11.60;88.10;;;;;;5111547;28;20090;-66
2023/10/29 03:13:15;;;;;;;6.55;3.97;;;11.60;88.00;;;;;;5111039;28;20075;-66
2023/10/29 03:15:41;;;;;;;5.88;3.75;;;11.50;88.00;;;;;;5110458;28;20071;-65
2023/10/29 03:18:06;;;;;;;5.63;3.55;;;11.50;88.00;;;;;;5110418;28;20431;-65
2023/10/29 03:20:32;;;;;;;4.72;3.40;;;11.50;88.00;;;;;;5111280;28;20087;-65
2023/10/29 03:22:58;;;;;;;6.60;4.03;;;11.50;88.00;;;;;;5111358;28;20032;-66
2023/10/29 03:25:24;;;;;;;8.57;3.60;;;11.50;88.00;;;;;;5110466;28;20079;-65
2023/10/29 03:27:50;;;;;;;6.70;3.60;;;11.50;87.90;;;;;;5110930;28;20086;-66
2023/10/29 03:30:15;;;;;;;7.50;3.58;;;11.60;87.90;;;;;;5110513;28;20436;-65
2023/10/29 03:32:41;;;;;;;8.07;3.88;;;11.50;87.80;;;;;;5110586;28;20070;-65
2023/10/29 03:35:07;;;;;;;6.20;3.30;;;11.50;87.80;;;;;;5111319;28;20036;-65
2023/10/29 03:37:32;;;;;;;5.45;3.20;;;11.50;87.80;;;;;;5110863;28;20051;-66
2023/10/29 03:39:59;;;;;;;5.90;3.30;;;11.60;87.70;;;;;;5111274;28;20051;-66
2023/10/29 03:42:24;;;;;;;7.45;3.28;;;11.60;87.50;;;;;;5110361;28;20055;-66
2023/10/29 03:44:50;;;;;;;5.95;3.22;;;11.60;87.50;;;;;;5110813;28;20039;-65
2023/10/29 03:47:15;;;;;;;5.82;2.88;;;11.60;87.30;;;;;;5110411;28;20047;-65
2023/10/29 03:49:44;;;;;;;5.97;2.92;;;11.60;87.20;;;;;;5110917;28;20168;-66
2023/10/29 03:52:10;;;;;;;7.53;2.95;;;11.60;87.10;;;;;;5123827;27;20043;-66
2023/10/29 03:54:35;;;;;;;5.78;2.63;;;11.50;87.00;;;;;;5110295;28;20039;-66
2023/10/29 03:57:01;;;;;;;8.18;2.25;;;11.60;87.00;;;;;;5110353;28;20483;-65
2023/10/29 03:59:27;;;;;;;4.65;2.10;;;11.60;86.70;;;;;;5110281;28;20390;-66
2023/10/29 04:01:52;;;;;;;6.13;2.17;;;11.70;86.60;;;;;;5110225;28;20393;-65
2023/10/29 04:04:18;;;;;;;3.55;1.95;;;11.70;86.40;;;;;;5109969;28;20079;-65
2023/10/29 04:06:44;;;;;;;3.53;1.70;;;11.60;86.30;;;;;;5101732;28;20039;-65
2023/10/29 04:09:09;;;;;;;3.33;1.75;;;11.70;86.10;;;;;;5108032;28;20058;-66
2023/10/29 04:11:36;;;;;;;2.50;1.80;;;11.70;86.00;;;;;;5089584;28;20044;-65
2023/10/29 04:14:01;;;;;;;5.50;1.83;;;11.70;85.90;;;;;;5084931;28;20499;-66
2023/10/29 04:16:28;;;;;;;3.65;1.42;;;11.70;85.80;;;;;;5110504;27;20040;-65
2023/10/29 04:18:54;;;;;;;3.15;1.88;;;11.80;85.80;;;;;;5114771;27;20066;-66
2023/10/29 04:21:20;;;;;;;7.43;4.05;;;11.90;85.60;;;;;;5109991;28;20051;-66
2023/10/29 04:23:45;;;;;;;3.00;1.60;;;11.90;85.40;;;;;;5106929;28;20387;-65
2023/10/29 04:26:11;;;;;;;4.07;2.50;;;12.00;85.20;;;;;;5110273;28;20043;-65
2023/10/29 04:28:37;;;;;;;3.20;1.70;;;12.10;85.00;;;;;;5109068;28;20051;-65
2023/10/29 04:31:03;;;;;;;6.15;1.60;;;12.10;84.90;;;;;;5109871;28;20047;-65
2023/10/29 04:33:28;;;;;;;4.65;2.55;;;12.20;84.90;;;;;;5109319;28;20153;-66
2023/10/29 04:35:54;;;;;;;3.65;2.58;;;12.20;84.60;;;;;;5110048;28;20410;-65
2023/10/29 04:38:20;;;;;;;4.10;1.65;;;12.20;84.60;;;;;;5109524;28;20052;-65
2023/10/29 04:40:45;;;;;;;4.65;1.70;;;12.30;84.10;;;;;;5109368;28;20123;-66
2023/10/29 04:43:11;;;;;;;3.50;1.40;;;12.30;83.80;;;;;;5110112;28;20051;-65
2023/10/29 04:45:37;;;;;;;4.90;1.48;;;12.30;83.60;;;;;;5109606;28;20055;-65
2023/10/29 04:48:03;;;;;;;2.40;1.05;;;12.20;83.70;;;;;;5097950;27;20043;-66
2023/10/29 04:50:30;;;;;;;2.60;1.33;;;12.10;83.50;;;;;;5091901;28;20081;-65
2023/10/29 04:52:57;;;;;;;2.90;0.98;;;12.00;82.50;;;;;;5087995;28;20704;-65
2023/10/29 04:55:23;;;;;;;2.42;1.08;;;11.90;82.20;;;;;;5107062;28;20051;-65
2023/10/29 04:57:49;;;;;;;1.77;1.05;;;11.80;81.80;;;;;;5098566;28;20437;-65
2023/10/29 05:00:15;;;;;;;2.33;1.98;;;11.70;82.10;;;;;;5106689;28;20044;-65
2023/10/29 05:02:40;;;;;;;2.47;0.80;;;11.70;82.30;;;;;;5105738;28;20555;-66
2023/10/29 05:05:07;;;;;;;1.98;1.30;;;11.60;82.30;;;;;;5106621;28;20040;-66
2023/10/29 05:07:36;;;;;;;4.10;2.72;;;11.50;82.30;;;;;;5106320;28;20416;-65
2023/10/29 05:10:01;;;;;;;2.42;1.10;;;11.50;82.00;;;;;;5106787;28;20051;-65
2023/10/29 05:12:27;;;;;;;1.77;0.70;;;11.40;82.20;;;;;;5104845;28;20391;-66
2023/10/29 05:14:53;;;;;;;1.77;0.63;;;11.30;82.40;;;;;;5105929;28;20058;-66
2023/10/29 05:17:18;;;;;;;1.13;0.95;;;11.30;82.40;;;;;;5105876;28;20062;-65
2023/10/29 05:19:44;;;;;;;3.55;1.02;;;11.30;82.60;;;;;;5090124;28;20457;-65
2023/10/29 05:22:10;;;;;;;1.50;1.00;;;11.30;82.80;;;;;;5113617;28;20542;-65
2023/10/29 05:24:36;;;;;;;2.80;1.00;;;11.20;83.10;;;;;;5106357;28;20450;-66
2023/10/29 05:27:03;;;;;;;2.58;1.30;;;11.30;83.50;;;;;;5083363;28;20044;-65
2023/10/29 05:29:28;;;;;;;5.13;2.58;;;11.20;83.70;;;;;;5099353;28;20069;-65
2023/10/29 05:31:54;;;;;;;4.75;2.83;;;11.20;84.00;;;;;;5097563;28;20071;-66
2023/10/29 05:34:20;;;;;;;4.03;1.23;;;11.30;84.20;;;;;;5085779;28;20048;-66
2023/10/29 05:36:45;;;;;;;1.10;0.80;;;11.30;84.40;;;;;;5109209;28;20082;-65
2023/10/29 05:39:11;;;;;;;3.08;1.00;;;11.30;84.60;;;;;;5109373;28;20406;-65
2023/10/29 05:41:37;;;;;;;7.32;4.32;;;11.30;84.60;;;;;;5113154;28;20437;-65
2023/10/29 05:44:02;;;;;;;5.85;1.90;;;11.30;84.70;;;;;;5113078;28;20097;-65
2023/10/29 05:46:28;;;;;;;4.82;2.75;;;11.30;84.70;;;;;;5113626;28;20036;-66
2023/10/29 05:48:54;;;;;;;5.30;2.00;;;11.20;84.70;;;;;;5093877;28;20040;-65
2023/10/29 05:51:20;;;;;;;4.13;1.85;;;11.20;84.70;;;;;;5113288;28;20137;-65
2023/10/29 05:53:47;;;;;;;5.78;2.63;;;11.20;84.60;;;;;;5112780;28;20047;-65
2023/10/29 05:56:13;;;;;;;6.40;2.47;;;11.10;84.50;;;;;;5112862;28;20058;-66
2023/10/29 05:58:39;;;;;;;10.13;6.22;;;11.10;84.30;;;;;;5113012;28;20040;-66
2023/10/29 06:01:05;;;;;;;5.18;2.17;;;11.10;84.40;;;;;;5098705;28;20080;-66
2023/10/29 06:03:31;;;;;;;5.43;2.92;;;11.10;84.30;;;;;;5099238;28;20047;-65
2023/10/29 06:05:56;;;;;;;6.50;3.38;;;11.10;84.50;;;;;;5098731;28;20393;-66
2023/10/29 06:08:22;;;;;;;8.13;3.83;;;11.10;84.60;;;;;;5096848;28;20047;-66
2023/10/29 06:10:50;;;;;;;7.32;4.80;;;11.10;84.70;;;;;;5106267;28;20119;-65
2023/10/29 06:13:16;;;;;;;6.22;3.63;;;11.10;84.90;;;;;;5102891;27;20088;-66
2023/10/29 06:15:41;;;;;;;10.70;5.85;;;11.10;85.20;;;;;;5108124;28;20591;-65
2023/10/29 06:18:07;;;;;;;8.38;4.55;;;11.10;85.30;;;;;;5103606;28;20051;-66
2023/10/29 06:20:33;;;;;;;7.68;3.92;;;11.20;85.20;;;;;;5111546;28;20521;-65
2023/10/29 06:22:59;;;;;;;5.75;3.38;;;11.20;85.00;;;;;;5111716;28;20508;-65
2023/10/29 06:25:26;;;;;;;2.53;1.17;;;11.20;84.00;;;;;;5112547;28;20052;-66
2023/10/29 06:27:52;;;;;;;10.10;6.40;;;11.20;83.60;;;;;;5111624;28;20448;-66
2023/10/29 06:30:18;;;;;;;3.22;0.85;;;11.10;83.00;;;;;;5111969;28;20047;-66
2023/10/29 06:32:45;;;;;;;2.17;0.60;;;11.10;82.80;;;;;;5111924;28;20085;-65
2023/10/29 06:35:11;;;;;;;3.97;0.50;;;11.00;82.40;;;;;;5111171;28;20498;-65
2023/10/29 06:37:37;;;;;;;1.85;0.80;;;11.00;82.50;;;;;;5111621;28;20413;-66
2023/10/29 06:40:03;;;;;;;4.00;0.80;;;10.90;83.00;;;;;;5093383;28;20044;-65
2023/10/29 06:42:29;;;;;;;1.50;0.53;;;10.80;83.30;;;;;;5111450;28;20040;-66
2023/10/29 06:44:55;;;;;;;4.20;0.83;;;10.80;83.60;;;;;;5093869;28;20036;-65
2023/10/29 06:47:21;;;;;;;2.30;0.97;;;10.80;84.10;;;;;;5111233;28;20043;-65
2023/10/29 06:49:46;;;;;;;2.83;0.90;;;10.80;84.70;;;;;;5111655;28;20589;-65
2023/10/29 06:52:12;;;;;;;2.63;1.15;;;10.90;84.70;;;;;;5111703;28;20089;-65
2023/10/29 06:54:38;;;;;;;3.20;0.77;;;11.00;84.70;;;;;;5111788;28;20047;-65
2023/10/29 06:57:05;;;;;;;4.30;1.17;;;11.10;84.50;;;;;;5104092;28;20054;-65
2023/10/29 06:59:31;;;;;;;2.87;1.10;;;11.10;84.20;;;;;;5110784;28;20043;-65
2023/10/29 07:01:58;;;;;;;4.82;1.10;;;11.20;84.10;;;;;;5110654;28;20104;-65
2023/10/29 07:04:25;;;;;;;5.55;1.00;;;11.30;84.00;;;;;;5111180;28;20054;-65
2023/10/29 07:06:51;;;;;;;5.70;1.30;;;11.30;83.70;;;;;;5111257;28;20048;-65
2023/10/29 07:09:16;;;;;;;1.92;0.90;;;11.40;83.60;;;;;;5110857;28;20040;-65
2023/10/29 07:11:43;;;;;;;4.47;1.38;;;11.50;83.50;;;;;;5110648;28;20054;-65
2023/10/29 07:14:09;;;;;;;4.00;1.50;;;11.50;83.30;;;;;;5092860;28;20043;-65
2023/10/29 07:16:35;;;;;;;5.53;1.63;;;11.50;83.40;;;;;;5111272;28;20043;-65
2023/10/29 07:19:01;;;;;;;4.10;1.15;;;11.60;83.30;;;;;;5091089;28;20051;-65
2023/10/29 07:21:27;;;;;;;4.90;1.52;;;11.60;83.40;;;;;;5111129;28;20055;-65
2023/10/29 07:23:53;;;;;;;2.97;1.10;;;11.60;83.40;;;;;;5111679;28;20047;-65
2023/10/29 07:26:18;;;;;;;4.75;1.38;;;11.60;83.40;;;;;;5111487;28;20387;-65
2023/10/29 07:28:44;;;;;;;4.78;1.40;;;11.70;83.40;;;;;;5110833;28;20043;-65
2023/10/29 07:31:10;;;;;;;8.73;1.27;;;11.70;83.50;;;;;;5110982;28;20039;-66
2023/10/29 07:33:35;;;;;;;4.78;1.48;;;11.70;83.50;;;;;;5110999;28;20039;-65
2023/10/29 07:36:04;;;;;;;3.20;1.35;;;11.70;83.20;;;;;;5110804;28;20055;-65
2023/10/29 07:38:30;;;;;;;5.05;1.55;;;11.70;83.10;;;;;;5110002;28;20047;-65
2023/10/29 07:40:56;;;;;;;4.50;1.05;;;11.70;82.80;;;;;;5110281;28;20535;-65
2023/10/29 07:43:22;;;;;;;3.58;1.42;;;11.80;82.70;;;;;;5110875;28;20083;-65
2023/10/29 07:45:51;;;;;;;3.60;1.15;;;11.90;82.70;;;;;;5113796;27;20043;-65
2023/10/29 07:48:18;;;;;;;3.30;1.05;;;11.90;82.10;;;;;;5120477;27;20525;-66
2023/10/29 07:50:53;;;;;;;5.07;0.90;;;11.90;81.90;;;;;;5091848;28;20085;-65
2023/10/29 07:53:19;;;;;;;4.05;1.08;;;11.90;81.80;;;;;;5110160;28;20042;-65
2023/10/29 07:55:45;;;;;;;5.18;1.15;;;11.90;81.60;;;;;;5110608;28;20035;-65
2023/10/29 07:58:11;;;;;;;4.90;1.30;;;11.90;80.90;;;;;;5110250;28;20042;-65
2023/10/29 08:00:36;;;;;;;5.88;1.60;;;11.90;81.40;;;;;;5107234;28;20047;-65
2023/10/29 08:03:02;;;;;;;4.63;1.10;;;12.00;81.20;;;;;;5099426;27;20050;-65
2023/10/29 08:05:28;;;;;;;4.97;1.67;;;12.00;80.80;;;;;;5102759;28;20479;-65
2023/10/29 08:07:53;;;;;;;4.47;1.50;;;12.00;80.80;;;;;;5105694;28;20635;-65
2023/10/29 08:10:19;;;;;;;8.10;2.13;;;12.00;80.90;;;;;;5107091;28;20047;-65
2023/10/29 08:12:45;;;;;;;4.53;1.52;;;12.00;80.80;;;;;;5105977;28;20504;-66
2023/10/29 08:15:12;;;;;;;5.90;1.75;;;12.00;80.80;;;;;;5106711;28;20055;-65
2023/10/29 08:17:39;;;;;;;7.07;1.65;;;12.00;80.90;;;;;;5106161;28;20043;-65
2023/10/29 08:20:06;;;;;;;5.40;2.17;;;12.00;80.10;;;;;;5115019;27;20101;-65
2023/10/29 08:22:32;;;;;;;6.82;1.90;;;12.10;80.70;;;;;;5106282;28;20134;-65
2023/10/29 08:24:59;;;;;;;4.63;2.35;;;12.20;80.50;;;;;;5107499;28;20426;-65
2023/10/29 08:27:25;;;;;;;5.05;2.13;;;12.30;80.00;;;;;;5088038;28;20075;-65
2023/10/29 08:29:52;;;;;;;6.40;1.88;;;12.30;80.00;;;;;;5070447;28;20058;-65
2023/10/29 08:32:18;;;;;;;7.13;2.00;;;12.40;79.70;;;;;;5099497;28;20048;-65
2023/10/29 08:34:44;;;;;;;3.97;1.40;;;12.50;79.50;;;;;;5097170;28;20048;-65
2023/10/29 08:37:13;;;;;;;7.78;1.83;;;12.50;79.10;;;;;;5106733;28;20116;-65
2023/10/29 08:39:38;;;;;;;9.77;2.10;;;12.50;78.90;;;;;;5106083;28;20395;-65
2023/10/29 08:42:04;;;;;;;6.50;1.95;;;12.50;79.10;;;;;;5105692;28;20055;-65
2023/10/29 08:44:30;;;;;;;8.07;1.63;;;12.50;78.80;;;;;;5087624;28;20055;-66
2023/10/29 08:46:56;;;;;;;6.72;2.13;;;12.60;78.70;;;;;;5104756;28;20071;-66
2023/10/29 08:49:22;;;;;;;8.80;2.50;;;12.50;78.20;;;;;;5103376;28;20047;-65
2023/10/29 08:51:47;;;;;;;4.93;2.08;;;12.60;78.00;;;;;;5102907;28;20132;-65
2023/10/29 08:54:13;;;;;;;6.88;1.88;;;12.50;77.90;;;;;;5107135;28;20088;-66
2023/10/29 08:56:39;;;;;;;8.15;1.67;;;12.50;77.90;;;;;;5106148;28;20490;-65
2023/10/29 08:59:05;;;;;;;7.05;2.15;;;12.50;78.30;;;;;;5106149;28;20577;-65
2023/10/29 09:01:32;;;;;;;6.93;1.70;;;12.50;78.10;;;;;;5106316;28;20079;-65
2023/10/29 09:03:59;;;;;;;8.80;2.22;;;12.50;77.80;;;;;;5106063;28;20060;-65
2023/10/29 09:06:25;;;;;;;4.03;1.90;;;12.50;77.50;;;;;;5098050;28;20052;-66
2023/10/29 09:08:51;;;;;;;6.00;1.80;;;12.50;77.30;;;;;;5105491;28;20097;-65
2023/10/29 09:11:17;;;;;;;6.85;2.13;;;12.50;77.90;;;;;;5105521;28;20100;-66
2023/10/29 09:13:43;;;;;;;10.32;1.80;;;12.50;77.80;;;;;;5098274;28;20048;-66
2023/10/29 09:16:08;;;;;;;5.72;1.67;;;12.50;77.60;;;;;;5106270;28;20046;-65
2023/10/29 09:18:35;;;;;;;7.72;2.20;;;12.50;77.60;;;;;;5101028;28;20116;-65
2023/10/29 09:21:01;;;;;;;8.50;2.30;;;12.50;77.60;;;;;;5097351;28;20047;-66
2023/10/29 09:23:29;;;;;;;7.50;1.70;;;12.50;77.90;;;;;;5087816;28;20048;-65
2023/10/29 09:25:57;;;;;;;5.00;1.67;;;12.40;77.90;;;;;;5093550;28;20401;-65
2023/10/29 09:28:23;;;;;;;6.28;2.13;;;12.40;77.90;;;;;;5105969;28;20127;-65
2023/10/29 09:30:49;;;;;;;6.55;1.95;;;12.30;78.20;;;;;;5099610;28;20455;-65
2023/10/29 09:33:15;;;;;;;8.75;2.33;;;12.40;78.10;;;;;;5103808;28;20039;-65
2023/10/29 09:35:44;;;;;;;8.63;1.77;;;12.50;78.50;;;;;;5100823;28;20533;-65
2023/10/29 09:38:10;;;;;;;7.35;1.80;;;12.50;77.90;;;;;;5097140;28;20044;-65
2023/10/29 09:40:36;;;;;;;8.05;2.15;;;12.50;77.80;;;;;;5102427;28;20035;-65
2023/10/29 09:43:09;;;;;;;6.28;1.73;;;12.70;77.40;;;;;;5105988;28;20520;-65
2023/10/29 09:45:45;;;;;;;11.27;2.53;;;12.80;77.50;;;;;;5101656;28;20051;-65
2023/10/29 09:48:17;;;;;;;9.70;2.33;;;12.80;77.80;;;;;;5102059;28;20039;-65
2023/10/29 09:50:44;;;;;;;7.82;2.90;;;12.90;77.70;;;;;;5100485;28;20070;-65
2023/10/29 09:53:14;;;;;;;9.48;3.28;;;13.00;76.70;;;;;;5102407;28;20040;-65
2023/10/29 09:55:40;;;;;;;7.00;2.63;;;13.00;76.50;;;;;;5101392;28;20051;-65
2023/10/29 09:58:06;;;;;;;8.27;2.28;;;13.10;76.40;;;;;;5097721;28;20414;-66
2023/10/29 10:00:32;;;;;;;7.47;2.45;;;13.10;76.60;;;;;;5100590;28;20417;-65
2023/10/29 10:02:59;;;;;;;8.07;3.65;;;13.10;76.80;;;;;;5102365;28;20039;-66
2023/10/29 10:05:28;;;;;;;6.60;4.57;;;13.10;76.30;;;;;;5101340;28;20430;-66
2023/10/29 10:07:55;;;;;;;7.63;2.85;;;13.10;76.30;;;;;;5106232;28;20073;-66
2023/10/29 10:10:21;;;;;;;6.50;3.17;;;13.10;76.40;;;;;;5103558;28;20410;-66
2023/10/29 10:12:51;;;;;;;6.03;2.22;;;13.10;75.90;;;;;;5102925;28;20169;-65
2023/10/29 10:15:18;;;;;;;5.55;2.20;;;13.20;76.00;;;;;;5100458;28;20431;-66
2023/10/29 10:17:48;;;;;;;7.60;3.60;;;13.30;76.10;;;;;;5104387;28;20047;-65
2023/10/29 10:20:16;;;;;;;7.60;3.10;;;13.30;75.50;;;;;;5104435;28;20051;-66
2023/10/29 10:22:43;;;;;;;9.23;2.58;;;13.30;76.00;;;;;;5105922;28;20557;-66
2023/10/29 10:25:19;;;;;;;9.90;3.20;;;13.30;76.30;;;;;;5105897;28;20402;-66
2023/10/29 10:27:52;;;;;;;6.40;2.75;;;13.30;75.70;;;;;;5109259;28;20406;-65
2023/10/29 10:30:27;;;;;;;6.82;2.78;;;13.30;75.80;;;;;;5106909;28;20047;-66
2023/10/29 10:33:12;;;;;;;5.28;2.42;;;13.30;75.70;;;;;;5106958;28;20055;-65
2023/10/29 10:35:45;;;;;;;8.77;2.80;;;13.30;75.70;;;;;;5105226;28;20134;-66
2023/10/29 10:38:12;;;;;;;6.10;2.45;;;13.30;75.40;;;;;;5088251;28;20161;-66
2023/10/29 10:40:38;;;;;;;7.55;2.53;;;13.30;74.40;;;;;;5106863;28;20133;-66
2023/10/29 10:43:08;;;;;;;6.00;3.15;;;13.30;74.30;;;;;;5108637;28;20105;-66
2023/10/29 10:45:35;;;;;;;5.80;2.75;;;13.30;74.00;;;;;;5108104;28;20516;-66
2023/10/29 10:48:05;;;;;;;6.03;2.40;;;13.30;74.90;;;;;;5089575;28;20244;-66
2023/10/29 10:50:32;;;;;;;7.97;2.40;;;13.30;75.00;;;;;;5108951;28;20052;-66
2023/10/29 10:52:58;;;;;;;7.82;2.47;;;13.20;74.70;;;;;;5107735;28;20055;-66
2023/10/29 10:55:25;;;;;;;8.50;4.68;;;13.10;74.70;;;;;;5105227;28;20047;-66
2023/10/29 10:57:52;;;;;;;7.30;2.72;;;13.10;74.40;;;;;;5060964;28;20047;-65
2023/10/29 11:00:21;;;;;;;8.82;2.50;;;13.10;74.70;;;;;;5091363;28;20819;-65
2023/10/29 11:02:49;;;;;;;8.55;2.67;;;13.20;74.70;;;;;;5097800;28;20056;-65
2023/10/29 11:05:16;;;;;;;6.88;2.60;;;13.30;73.90;;;;;;5101187;28;20040;-66
2023/10/29 11:07:43;;;;;;;8.35;2.50;;;13.30;74.20;;;;;;5105605;28;20550;-65
2023/10/29 11:10:12;;;;;;;7.63;2.47;;;13.30;73.70;;;;;;5085257;28;20052;-66
2023/10/29 11:12:39;;;;;;;8.65;2.45;;;13.30;74.20;;;;;;5105199;28;20043;-66
2023/10/29 11:15:19;;;;;;;8.57;4.57;;;13.30;74.40;;;;;;5106083;28;20052;-65
2023/10/29 11:17:52;;;;;;;11.57;2.33;;;13.20;73.80;;;;;;5108158;28;20078;-66
2023/10/29 11:20:45;;;;;;;10.10;3.30;;;13.20;74.20;;;;;;5108646;28;20418;-65
2023/10/29 11:23:15;;;;;;;7.25;2.80;;;13.30;73.80;;;;;;5099220;28;20099;-66
2023/10/29 11:25:41;;;;;;;8.60;2.88;;;13.30;73.80;;;;;;5108321;28;20083;-66
2023/10/29 11:28:43;;;;;;;8.00;2.42;;;13.30;74.50;;;;;;5108999;28;20101;-66
2023/10/29 11:31:19;;;;;;;8.80;2.60;;;13.30;74.10;;;;;;5076678;28;20410;-65
2023/10/29 11:33:57;;;;;;;7.97;2.85;;;13.40;74.30;;;;;;5108939;28;20040;-66
2023/10/29 11:36:32;;;;;;;10.98;3.15;;;13.50;74.20;;;;;;5109009;28;20473;-66
2023/10/29 11:39:16;;;;;;;6.93;2.63;;;13.50;74.20;;;;;;5108964;28;20043;-66
2023/10/29 11:41:43;;;;;;;9.68;2.65;;;13.50;73.90;;;;;;5106416;28;20043;-66
2023/10/29 11:44:17;;;;;;;8.57;2.53;;;13.50;74.10;;;;;;5108628;28;20045;-66
2023/10/29 11:46:55;;;;;;;8.25;3.30;;;13.50;74.20;;;;;;5105772;28;20039;-66
2023/10/29 11:49:22;;;;;;;8.45;2.63;;;13.50;74.40;;;;;;5107102;28;20056;-66
2023/10/29 11:52:04;;;;;;;10.70;3.33;;;13.50;74.30;;;;;;5107775;28;20040;-66
2023/10/29 11:54:32;;;;;;;8.50;2.88;;;13.40;73.90;;;;;;5090652;28;20039;-67
2023/10/29 11:56:59;;;;;;;8.88;2.92;;;13.30;74.30;;;;;;5108391;28;20039;-65
2023/10/29 11:59:26;;;;;;;11.45;3.30;;;13.30;74.30;;;;;;5109018;28;20043;-66
2023/10/29 12:01:53;;;;;;;8.63;3.63;;;13.20;74.20;;;;;;5096452;28;20143;-65
2023/10/29 12:04:19;;;;;;;10.40;3.45;;;13.20;74.80;;;;;;5107389;28;20055;-66
2023/10/29 12:06:47;;;;;;;12.07;4.40;;;13.10;75.00;;;;;;5105186;28;20047;-65
2023/10/29 12:09:21;;;;;;;8.85;3.47;;;13.10;74.80;;;;;;5106062;28;20073;-66
2023/10/29 12:11:51;;;;;;;10.90;3.80;;;13.10;74.80;;;;;;5105274;28;20085;-66
2023/10/29 12:14:43;;;;;;;10.82;3.95;;;13.10;75.00;;;;;;5107046;28;20047;-66
2023/10/29 12:17:10;;;;;;;11.88;2.97;;;13.10;74.60;;;;;;5107810;28;20031;-66
2023/10/29 12:19:43;;;;;;;17.25;3.55;;;13.00;74.70;;;;;;5107363;28;20055;-65
2023/10/29 12:22:29;;;;;;;10.38;3.67;;;13.00;74.80;;;;;;5106812;28;20180;-65
2023/10/29 12:24:59;;;;;;;9.18;2.90;;;12.90;74.70;;;;;;5092244;28;20092;-65
2023/10/29 12:27:25;;;;;;;14.35;3.10;;;12.90;75.00;;;;;;5106619;28;20078;-66
2023/10/29 12:29:51;;;;;;;12.68;3.03;;;12.90;75.00;;;;;;5107312;28;20043;-65
2023/10/29 12:32:20;;;;;;;11.82;3.35;;;12.90;74.90;;;;;;5107032;28;20051;-66
2023/10/29 12:34:49;;;;;;;16.23;4.38;;;12.90;75.00;;;;;;5106413;28;20089;-65
2023/10/29 12:37:29;;;;;;;10.75;3.50;;;12.90;75.10;;;;;;5091466;28;20043;-65
2023/10/29 12:39:59;;;;;;;9.80;3.47;;;12.90;74.50;;;;;;5106777;28;20095;-65
2023/10/29 12:42:53;;;;;;;7.10;3.00;;;12.90;74.80;;;;;;5106110;28;20043;-65